Time;durP1;ratioP1;P1;durP2;ratioP2;P2;SDS_P1;SDS_P2;PMS_P1;PMS_P2;Temp;Humidity;BMP_temperature;BMP_pressure;BME280_temperature;BME280_humidity;BME280_pressure;Samples;Min_cycle;Max_cycle;Signal;HPM_P1;HPM_P2
2021/12/04 00:02:34;;;;;;;17.90;12.73;;;1.00;95.40;;;;;;6252494;28;20482;-63
2021/12/04 00:05:40;;;;;;;12.90;10.90;;;1.00;95.30;;;;;;6252519;28;20505;-63
2021/12/04 00:08:46;;;;;;;14.10;12.40;;;1.00;95.30;;;;;;6251945;28;20537;-65
2021/12/04 00:11:55;;;;;;;15.87;10.30;;;1.00;95.30;;;;;;6251843;28;20467;-68
2021/12/04 00:14:58;;;;;;;14.93;13.30;;;1.00;95.30;;;;;;6251398;28;20467;-67
2021/12/04 00:18:03;;;;;;;10.30;9.10;;;0.90;95.20;;;;;;6257133;28;20486;-67
2021/12/04 00:21:07;;;;;;;12.13;8.97;;;1.00;95.40;;;;;;6260368;28;20524;-67
2021/12/04 00:24:10;;;;;;;9.30;7.20;;;0.90;95.30;;;;;;6251655;28;20834;-67
2021/12/04 00:27:13;;;;;;;12.67;8.10;;;1.00;95.30;;;;;;6251935;28;20486;-68
2021/12/04 00:30:17;;;;;;;10.00;6.80;;;0.90;95.10;;;;;;6252773;28;20475;-70
2021/12/04 00:33:24;;;;;;;8.60;7.47;;;0.80;95.20;;;;;;6257853;28;20800;-68
2021/12/04 00:36:34;;;;;;;7.53;6.60;;;0.70;95.10;;;;;;6273426;28;20501;-66
2021/12/04 00:49:41;;;;;;;14.83;7.23;;;0.70;95.80;;;;;;6252074;28;20476;-67
2021/12/04 00:52:44;;;;;;;11.27;6.57;;;0.70;95.90;;;;;;6273797;28;20512;-64
2021/12/04 00:55:47;;;;;;;8.77;6.30;;;0.70;95.90;;;;;;6264249;28;20459;-67
2021/12/04 00:58:51;;;;;;;10.10;7.63;;;0.70;95.90;;;;;;6252027;28;20440;-67
2021/12/04 01:01:54;;;;;;;9.53;6.43;;;0.70;95.90;;;;;;6250350;28;20447;-67
2021/12/04 01:04:59;;;;;;;8.60;6.80;;;0.60;95.90;;;;;;6243967;28;20823;-66
2021/12/04 01:08:02;;;;;;;8.60;6.37;;;0.60;95.90;;;;;;6263679;28;20466;-66
2021/12/04 01:11:06;;;;;;;11.10;5.27;;;0.60;96.00;;;;;;6219865;28;20472;-67
2021/12/04 01:14:11;;;;;;;11.73;6.23;;;0.60;96.20;;;;;;6224560;28;20480;-67
2021/12/04 01:17:14;;;;;;;8.60;6.00;;;0.60;96.20;;;;;;6225108;28;20468;-66
2021/12/04 01:20:18;;;;;;;10.63;5.50;;;0.60;96.20;;;;;;6223545;28;20479;-65
2021/12/04 01:23:22;;;;;;;7.73;5.67;;;0.60;96.20;;;;;;6224539;28;20472;-65
2021/12/04 01:26:26;;;;;;;6.57;4.60;;;0.50;96.10;;;;;;6223789;28;20468;-66
2021/12/04 01:29:29;;;;;;;9.83;5.27;;;0.50;96.10;;;;;;6224527;28;20788;-66
2021/12/04 01:32:32;;;;;;;8.57;5.00;;;0.50;96.30;;;;;;6224197;28;20468;-65
2021/12/04 01:35:37;;;;;;;8.00;5.60;;;0.40;96.10;;;;;;6225492;28;20479;-65
2021/12/04 01:38:41;;;;;;;5.40;4.90;;;0.40;96.10;;;;;;6226503;28;20464;-66
2021/12/04 01:41:44;;;;;;;6.00;4.93;;;0.40;96.20;;;;;;6226093;28;20472;-65
2021/12/04 01:44:48;;;;;;;7.60;4.90;;;0.30;96.10;;;;;;6225966;28;20479;-65
2021/12/04 01:47:57;;;;;;;5.40;4.90;;;0.30;96.10;;;;;;6226189;28;20471;-65
2021/12/04 01:51:03;;;;;;;4.80;4.33;;;0.30;96.20;;;;;;6226811;28;20468;-65
2021/12/04 01:54:06;;;;;;;8.60;5.47;;;0.30;96.10;;;;;;6213619;28;20472;-65
2021/12/04 01:57:10;;;;;;;5.33;4.80;;;0.30;95.80;;;;;;6227462;28;20487;-65
2021/12/04 02:00:13;;;;;;;6.67;4.67;;;0.30;95.80;;;;;;6238187;28;20498;-65
2021/12/04 02:03:18;;;;;;;4.87;4.23;;;0.20;95.80;;;;;;6250810;28;20478;-65
2021/12/04 02:06:22;;;;;;;5.57;4.57;;;0.20;96.00;;;;;;6250098;28;20486;-65
2021/12/04 02:09:25;;;;;;;4.60;4.20;;;0.20;96.00;;;;;;6250924;28;20483;-65
2021/12/04 02:12:29;;;;;;;5.57;4.80;;;0.10;95.90;;;;;;6250261;28;20470;-65
2021/12/04 02:15:32;;;;;;;5.50;4.27;;;0.20;96.00;;;;;;6245731;28;20487;-65
2021/12/04 02:18:35;;;;;;;5.30;4.77;;;0.10;96.00;;;;;;6248855;28;20478;-65
2021/12/04 02:21:39;;;;;;;6.77;6.00;;;0.10;96.20;;;;;;6248610;28;20470;-66
2021/12/04 02:24:42;;;;;;;7.07;6.27;;;0.10;96.20;;;;;;6232282;28;20490;-66
2021/12/04 02:27:46;;;;;;;7.10;6.40;;;0.10;96.40;;;;;;6223843;28;20479;-65
2021/12/04 02:30:49;;;;;;;5.83;5.23;;;0.10;96.40;;;;;;6224914;28;20478;-65
2021/12/04 02:33:53;;;;;;;5.50;5.00;;;0.10;96.50;;;;;;6225707;28;20478;-66
2021/12/04 02:37:00;;;;;;;6.27;4.57;;;0.10;96.70;;;;;;6225427;28;20487;-65
2021/12/04 02:40:04;;;;;;;5.80;5.30;;;0.10;96.60;;;;;;6225543;28;20515;-64
2021/12/04 02:43:07;;;;;;;4.93;4.43;;;0.10;96.60;;;;;;6225721;28;20526;-65
2021/12/04 02:46:10;;;;;;;7.03;4.77;;;0.20;96.60;;;;;;6225099;28;20472;-65
2021/12/04 02:49:15;;;;;;;7.70;4.90;;;0.20;96.60;;;;;;6225562;28;20480;-65
2021/12/04 02:52:20;;;;;;;6.10;4.67;;;0.20;96.70;;;;;;6235369;28;20494;-66
2021/12/04 02:55:23;;;;;;;7.53;5.53;;;0.30;96.90;;;;;;6249569;28;20486;-66
2021/12/04 02:58:26;;;;;;;4.77;4.37;;;0.30;97.10;;;;;;6226484;28;20475;-66
2021/12/04 03:01:31;;;;;;;5.17;4.67;;;0.30;96.80;;;;;;6225399;28;20476;-67
2021/12/04 03:04:34;;;;;;;6.03;5.37;;;0.30;96.80;;;;;;6225293;28;20483;-66
2021/12/04 03:07:39;;;;;;;9.60;5.67;;;0.40;96.80;;;;;;6225047;28;20472;-66
2021/12/04 03:10:42;;;;;;;6.90;5.97;;;0.40;96.60;;;;;;6225029;28;20480;-66
2021/12/04 03:13:45;;;;;;;8.87;6.60;;;0.40;96.40;;;;;;6249034;28;20450;-66
2021/12/04 03:16:49;;;;;;;5.37;4.87;;;0.50;96.40;;;;;;6249968;28;20495;-65
2021/12/04 03:19:53;;;;;;;8.87;5.57;;;0.50;96.40;;;;;;6240226;28;20443;-66
2021/12/04 03:23:01;;;;;;;4.87;4.37;;;0.50;96.30;;;;;;6250133;28;20756;-66
2021/12/04 03:26:09;;;;;;;7.47;5.20;;;0.50;96.40;;;;;;6249066;28;20783;-65
2021/12/04 03:29:16;;;;;;;5.10;4.60;;;0.50;96.30;;;;;;6249954;28;20482;-66
2021/12/04 03:32:47;;;;;;;7.43;5.10;;;0.50;96.40;;;;;;6249380;28;20478;-66
2021/12/04 03:42:30;;;;;;;5.50;3.90;;;0.30;96.10;;;;;;6253586;28;20857;-65
2021/12/04 03:45:35;;;;;;;6.27;5.20;;;0.30;96.10;;;;;;6254007;28;20485;-65
2021/12/04 03:48:51;;;;;;;7.80;5.43;;;0.30;96.10;;;;;;6253365;28;20485;-66
2021/12/04 03:51:54;;;;;;;6.73;4.87;;;0.40;96.10;;;;;;6260539;28;20466;-66
2021/12/04 03:54:58;;;;;;;10.70;5.37;;;0.40;96.10;;;;;;6278731;28;20466;-66
2021/12/04 03:58:02;;;;;;;4.90;4.50;;;0.50;96.20;;;;;;6257761;28;20497;-66
2021/12/04 04:01:05;;;;;;;4.90;4.37;;;0.50;96.10;;;;;;6253848;28;20483;-66
2021/12/04 04:04:08;;;;;;;6.07;4.50;;;0.60;95.90;;;;;;6253379;28;20471;-66
2021/12/04 04:07:11;;;;;;;7.10;5.20;;;0.60;95.80;;;;;;6253399;28;20841;-66
2021/12/04 04:10:16;;;;;;;5.90;5.30;;;0.60;95.90;;;;;;6253090;28;20462;-65
2021/12/04 04:13:20;;;;;;;6.27;5.30;;;0.70;96.00;;;;;;6253265;28;20955;-64
2021/12/04 04:16:23;;;;;;;4.93;4.53;;;0.70;96.00;;;;;;6252759;28;20479;-65
2021/12/04 04:19:27;;;;;;;5.10;4.20;;;0.70;96.00;;;;;;6253165;28;20467;-64
2021/12/04 04:22:30;;;;;;;11.27;5.00;;;0.70;95.90;;;;;;6253344;28;20478;-64
2021/12/04 04:25:35;;;;;;;6.47;5.07;;;0.70;95.70;;;;;;6247624;28;20970;-64
2021/12/04 04:28:38;;;;;;;5.97;4.43;;;0.70;95.80;;;;;;6252400;28;20479;-64
2021/12/04 04:31:46;;;;;;;7.07;4.03;;;0.70;95.80;;;;;;6252266;28;20475;-64
2021/12/04 04:34:53;;;;;;;4.63;4.13;;;0.60;95.70;;;;;;6252828;28;20891;-64
2021/12/04 04:38:03;;;;;;;5.30;4.60;;;0.60;95.60;;;;;;6252180;28;20490;-64
2021/12/04 04:58:11;;;;;;;5.53;4.70;;;0.80;95.90;;;;;;6258410;28;20483;-64
2021/12/04 05:01:24;;;;;;;6.57;4.23;;;0.70;95.70;;;;;;6251910;28;20483;-64
2021/12/04 05:11:16;;;;;;;7.90;4.70;;;0.70;95.70;;;;;;6252168;28;20478;-64
2021/12/04 05:14:21;;;;;;;7.60;5.27;;;0.70;95.80;;;;;;6252000;28;20479;-64
2021/12/04 05:17:30;;;;;;;4.80;4.40;;;0.70;95.80;;;;;;6251758;28;20470;-64
2021/12/04 05:20:36;;;;;;;9.20;5.63;;;0.70;95.80;;;;;;6251541;28;20967;-64
2021/12/04 05:23:42;;;;;;;10.63;7.00;;;0.70;95.70;;;;;;6251077;28;20992;-65
2021/12/04 05:26:45;;;;;;;6.10;5.03;;;0.80;95.90;;;;;;6251209;28;20482;-65
2021/12/04 05:29:50;;;;;;;5.90;4.60;;;0.70;95.70;;;;;;6247219;28;20997;-65
2021/12/04 05:32:53;;;;;;;4.40;4.00;;;0.60;95.60;;;;;;6251638;28;20478;-65
2021/12/04 05:35:57;;;;;;;5.60;4.13;;;0.60;95.80;;;;;;6251427;28;20479;-65
2021/12/04 05:39:00;;;;;;;3.80;3.50;;;0.60;95.80;;;;;;6251245;28;20532;-65
2021/12/04 05:42:03;;;;;;;4.27;3.87;;;0.70;96.00;;;;;;6251488;28;20467;-65
2021/12/04 05:45:15;;;;;;;4.30;3.80;;;0.60;95.80;;;;;;6251294;28;20475;-65
2021/12/04 05:48:24;;;;;;;3.90;3.50;;;0.70;95.80;;;;;;6251367;28;20471;-65
2021/12/04 05:51:46;;;;;;;5.03;4.40;;;0.70;95.40;;;;;;6254266;28;20552;-65
2021/12/04 05:55:11;;;;;;;4.80;4.30;;;0.60;95.40;;;;;;6275771;28;20838;-65
2021/12/04 05:58:14;;;;;;;5.40;4.20;;;0.70;95.40;;;;;;6257861;22;20491;-65
2021/12/04 06:01:20;;;;;;;6.43;4.20;;;0.70;95.30;;;;;;6250863;28;20512;-65
2021/12/04 06:04:24;;;;;;;4.77;4.27;;;0.80;95.20;;;;;;6250598;28;20889;-65
2021/12/04 06:07:27;;;;;;;5.10;4.13;;;0.80;94.90;;;;;;6250595;28;20471;-65
2021/12/04 06:10:31;;;;;;;8.43;4.63;;;0.80;94.90;;;;;;6250751;28;20483;-65
2021/12/04 06:13:34;;;;;;;5.57;4.20;;;0.80;94.70;;;;;;6250435;28;20475;-65
2021/12/04 06:16:38;;;;;;;4.80;4.40;;;0.80;94.60;;;;;;6250376;28;20482;-65
2021/12/04 06:23:02;;;;;;;5.43;4.63;;;0.80;94.30;;;;;;6129021;28;20459;-65
2021/12/04 06:26:07;;;;;;;5.50;4.43;;;0.80;94.00;;;;;;6150294;28;20463;-65
2021/12/04 06:29:10;;;;;;;5.73;3.63;;;0.80;94.20;;;;;;6149658;28;20458;-65
2021/12/04 06:32:14;;;;;;;7.03;3.57;;;0.80;94.50;;;;;;6138007;28;20791;-65
2021/12/04 06:35:19;;;;;;;4.37;3.60;;;0.80;94.30;;;;;;6130184;28;20478;-65
2021/12/04 06:38:23;;;;;;;8.30;4.50;;;0.90;94.10;;;;;;6150129;28;20493;-65
2021/12/04 06:41:27;;;;;;;5.60;4.30;;;0.80;94.20;;;;;;6150433;28;20478;-65
2021/12/04 06:44:30;;;;;;;8.90;4.10;;;0.80;94.10;;;;;;6149803;28;20985;-66
2021/12/04 06:47:37;;;;;;;5.70;3.77;;;0.80;94.20;;;;;;6149836;28;20478;-65
2021/12/04 06:50:43;;;;;;;7.90;3.83;;;0.80;94.10;;;;;;6149972;28;20486;-65
2021/12/04 06:53:49;;;;;;;6.93;4.10;;;0.70;93.90;;;;;;6128335;28;20484;-65
2021/12/04 06:56:52;;;;;;;7.30;4.17;;;0.80;94.00;;;;;;6136500;28;20480;-65
2021/12/04 06:59:57;;;;;;;6.07;5.37;;;0.80;94.00;;;;;;6149355;28;20966;-65
2021/12/04 07:03:01;;;;;;;5.87;5.27;;;0.80;94.10;;;;;;6149866;28;20466;-65
2021/12/04 07:06:05;;;;;;;7.97;5.83;;;0.90;94.30;;;;;;6149982;28;20528;-65
2021/12/04 07:09:09;;;;;;;6.53;5.43;;;0.90;94.50;;;;;;6151654;28;20481;-65
2021/12/04 07:12:12;;;;;;;5.23;4.73;;;1.00;94.50;;;;;;6154053;28;20804;-64
2021/12/04 07:15:15;;;;;;;6.63;5.67;;;1.10;94.50;;;;;;6154755;28;20474;-65
2021/12/04 07:18:20;;;;;;;5.63;5.13;;;1.10;94.40;;;;;;6154470;28;20608;-65
2021/12/04 07:21:24;;;;;;;7.80;6.20;;;1.20;94.50;;;;;;6154075;28;20470;-65
2021/12/04 07:24:28;;;;;;;7.20;6.50;;;1.20;94.40;;;;;;6153318;28;20481;-65
2021/12/04 07:27:32;;;;;;;5.70;5.10;;;1.30;94.30;;;;;;6153452;28;20470;-65
2021/12/04 07:30:35;;;;;;;5.47;4.97;;;1.40;94.10;;;;;;6153171;28;20489;-65
2021/12/04 07:33:39;;;;;;;4.50;4.10;;;1.50;93.60;;;;;;6153163;28;20482;-64
2021/12/04 07:36:43;;;;;;;4.93;4.10;;;1.60;93.50;;;;;;6133512;28;20479;-64
2021/12/04 07:39:46;;;;;;;4.87;3.97;;;1.70;93.10;;;;;;6145131;28;20479;-64
2021/12/04 07:42:49;;;;;;;4.97;3.87;;;1.80;92.70;;;;;;6153239;28;20471;-64
2021/12/04 07:45:52;;;;;;;5.63;4.57;;;1.90;92.00;;;;;;6152935;28;20799;-64
2021/12/04 07:48:57;;;;;;;8.63;4.20;;;2.00;92.00;;;;;;6153059;28;20962;-64
2021/12/04 07:52:00;;;;;;;5.30;4.80;;;2.10;92.10;;;;;;6145640;28;20471;-64
2021/12/04 07:55:06;;;;;;;8.37;5.87;;;2.30;92.10;;;;;;6129211;28;20479;-64
2021/12/04 07:58:09;;;;;;;9.13;5.70;;;2.50;92.00;;;;;;6149644;28;20950;-65
2021/12/04 08:01:13;;;;;;;7.70;7.00;;;2.60;91.60;;;;;;6152848;28;20474;-65
2021/12/04 08:04:18;;;;;;;6.53;5.23;;;2.80;91.40;;;;;;6152946;28;20944;-65
2021/12/04 08:07:22;;;;;;;5.87;5.07;;;2.90;91.10;;;;;;6152568;28;20822;-64
2021/12/04 08:10:26;;;;;;;7.63;4.27;;;2.90;90.40;;;;;;6152437;28;20478;-65
2021/12/04 08:13:29;;;;;;;4.83;4.33;;;3.10;90.00;;;;;;6152548;28;20494;-64
2021/12/04 08:16:32;;;;;;;6.63;4.93;;;3.20;89.30;;;;;;6152307;28;20482;-65
2021/12/04 08:19:38;;;;;;;6.00;5.50;;;3.20;89.30;;;;;;6152350;28;21009;-65
2021/12/04 08:22:41;;;;;;;8.40;5.10;;;3.40;89.50;;;;;;6152381;28;20483;-65
2021/12/04 08:25:45;;;;;;;6.03;5.43;;;3.50;89.60;;;;;;6152326;28;20482;-65
2021/12/04 08:28:50;;;;;;;6.93;5.77;;;3.50;89.60;;;;;;6151566;28;20470;-65
2021/12/04 08:31:53;;;;;;;7.43;4.70;;;3.60;89.10;;;;;;6152289;28;20451;-65
2021/12/04 08:34:58;;;;;;;6.13;5.60;;;3.80;88.00;;;;;;6153044;28;20450;-65
2021/12/04 08:38:01;;;;;;;5.30;4.80;;;3.90;87.60;;;;;;6152156;28;20467;-65
2021/12/04 08:41:05;;;;;;;7.60;5.10;;;4.00;86.50;;;;;;6137399;28;20450;-65
2021/12/04 08:44:08;;;;;;;5.23;4.37;;;4.10;85.50;;;;;;6131139;28;20479;-65
2021/12/04 08:47:14;;;;;;;6.57;4.97;;;4.30;84.10;;;;;;6151627;28;20915;-66
2021/12/04 08:50:20;;;;;;;5.17;4.63;;;4.40;83.50;;;;;;6152668;28;20479;-66
2021/12/04 08:53:24;;;;;;;10.83;5.10;;;4.50;82.70;;;;;;6133272;28;20809;-65
2021/12/04 08:56:27;;;;;;;9.63;5.00;;;4.50;82.30;;;;;;6135043;28;20475;-65
2021/12/04 08:59:32;;;;;;;6.47;5.00;;;4.50;81.90;;;;;;6151769;28;20946;-65
2021/12/04 09:02:36;;;;;;;6.73;6.03;;;4.60;81.60;;;;;;6151802;28;20471;-65
2021/12/04 09:05:41;;;;;;;6.17;4.87;;;4.70;81.90;;;;;;6151523;28;20818;-65
2021/12/04 09:08:44;;;;;;;9.13;4.60;;;4.80;80.90;;;;;;6151351;28;21021;-66
2021/12/04 09:11:52;;;;;;;11.17;6.10;;;4.80;80.20;;;;;;6151916;28;20490;-66
2021/12/04 09:14:56;;;;;;;7.53;5.20;;;4.70;78.70;;;;;;6151524;28;20474;-66
2021/12/04 09:17:59;;;;;;;6.73;4.40;;;4.70;78.40;;;;;;6151202;28;20855;-66
2021/12/04 09:21:05;;;;;;;5.03;4.53;;;4.70;78.20;;;;;;6151165;28;20826;-66
2021/12/04 09:24:13;;;;;;;6.50;4.67;;;4.90;77.60;;;;;;6151128;28;20982;-66
2021/12/04 09:27:20;;;;;;;5.13;4.43;;;5.20;77.10;;;;;;6150987;28;20494;-66
2021/12/04 09:30:50;;;;;;;10.40;5.33;;;5.50;75.80;;;;;;6151183;28;20959;-66
2021/12/04 10:00:55;;;;;;;7.10;5.60;;;6.60;72.20;;;;;;6275792;28;20470;-66
2021/12/04 10:04:20;;;;;;;8.03;5.03;;;6.70;69.70;;;;;;6275414;28;20803;-66
2021/12/04 10:21:14;;;;;;;5.50;5.00;;;7.00;65.40;;;;;;6198982;28;20479;-66
2021/12/04 10:24:41;;;;;;;6.30;4.70;;;7.20;65.20;;;;;;6126490;29;20476;-66
2021/12/04 10:34:30;;;;;;;5.57;4.77;;;7.50;60.80;;;;;;6126447;29;20483;-65
2021/12/04 10:37:37;;;;;;;6.57;4.83;;;7.60;60.50;;;;;;6126442;29;20498;-66
2021/12/04 10:40:42;;;;;;;7.80;4.63;;;7.50;59.80;;;;;;6148801;29;20493;-66
2021/12/04 10:43:47;;;;;;;7.83;4.57;;;7.30;59.30;;;;;;6149754;28;20536;-65
2021/12/04 10:46:55;;;;;;;4.67;4.20;;;7.00;59.80;;;;;;6145895;28;20470;-71
2021/12/04 10:50:11;;;;;;;5.57;4.60;;;7.20;60.50;;;;;;6150211;28;20466;-68
2021/12/04 10:53:20;;;;;;;5.17;4.63;;;7.40;59.80;;;;;;6149947;28;20903;-68
2021/12/04 10:56:30;;;;;;;6.27;4.30;;;7.50;59.20;;;;;;6149529;28;20487;-68
2021/12/04 10:59:48;;;;;;;5.80;4.13;;;7.70;58.40;;;;;;6150049;28;20463;-68
2021/12/04 11:02:56;;;;;;;5.63;4.67;;;7.80;57.20;;;;;;6149737;28;20911;-67
2021/12/04 11:20:05;;;;;;;5.53;5.00;;;15.90;34.30;;;;;;6148743;28;20487;-67
2021/12/04 11:40:01;;;;;;;6.47;5.77;;;18.10;36.60;;;;;;6143835;28;20486;-67
2021/12/04 11:43:10;;;;;;;6.30;5.03;;;22.10;30.00;;;;;;6148121;28;20805;-67
2021/12/04 11:46:20;;;;;;;6.70;5.10;;;21.90;27.10;;;;;;6148725;28;20254;-67
2021/12/04 11:49:27;;;;;;;7.70;6.13;;;19.30;27.80;;;;;;6148911;28;20486;-66
2021/12/04 11:52:30;;;;;;;6.40;5.80;;;17.20;30.00;;;;;;6148810;28;20475;-66
2021/12/04 11:55:37;;;;;;;6.20;5.60;;;15.10;32.00;;;;;;6149000;28;20835;-66
2021/12/04 11:58:44;;;;;;;10.67;6.30;;;13.90;34.10;;;;;;6152873;28;20966;-66
2021/12/04 12:01:56;;;;;;;8.67;6.63;;;12.30;35.50;;;;;;6152442;28;20498;-66
2021/12/04 12:05:01;;;;;;;6.83;6.13;;;11.40;38.80;;;;;;6152861;28;20532;-66
2021/12/04 12:08:06;;;;;;;6.10;5.23;;;11.60;40.00;;;;;;6152684;28;20477;-66
2021/12/04 12:11:12;;;;;;;5.67;4.90;;;11.40;39.10;;;;;;6152901;28;20475;-66
2021/12/04 12:14:16;;;;;;;7.33;5.50;;;11.30;40.10;;;;;;6152563;28;20467;-66
2021/12/04 12:17:30;;;;;;;10.23;6.00;;;13.00;39.70;;;;;;6152521;28;20531;-66
2021/12/04 12:20:42;;;;;;;6.50;5.90;;;15.70;36.10;;;;;;6152809;28;20977;-66
2021/12/04 12:27:27;;;;;;;7.07;5.53;;;20.20;30.00;;;;;;6151585;28;20794;-67
2021/12/04 12:34:03;;;;;;;8.33;5.40;;;23.40;28.00;;;;;;6152044;28;20586;-68
2021/12/04 12:37:22;;;;;;;6.03;5.53;;;24.90;25.20;;;;;;6151997;28;20235;-67
2021/12/04 12:40:29;;;;;;;6.43;5.83;;;24.90;24.30;;;;;;6151920;28;20239;-67
2021/12/04 12:43:43;;;;;;;6.63;5.77;;;24.10;24.10;;;;;;6151859;28;20253;-67
2021/12/04 12:46:49;;;;;;;6.33;5.73;;;23.60;24.60;;;;;;6152068;28;20736;-67
2021/12/04 12:49:52;;;;;;;9.90;5.07;;;24.00;24.30;;;;;;6152183;28;20223;-68
2021/12/04 12:53:07;;;;;;;7.70;6.10;;;24.40;24.10;;;;;;6152440;28;20218;-68
2021/12/04 12:56:13;;;;;;;7.30;6.67;;;24.90;24.00;;;;;;6155482;28;20251;-67
2021/12/04 12:59:31;;;;;;;7.27;6.57;;;24.30;24.20;;;;;;6155654;28;20246;-67
2021/12/04 13:12:52;;;;;;;6.60;6.00;;;22.20;25.40;;;;;;6151788;28;20227;-67
2021/12/04 13:16:01;;;;;;;6.47;5.87;;;20.90;26.10;;;;;;6151353;28;20234;-67
2021/12/04 13:19:09;;;;;;;6.00;5.43;;;20.60;26.80;;;;;;6151454;28;20231;-67
2021/12/04 13:22:17;;;;;;;6.87;6.23;;;20.10;27.20;;;;;;6151595;28;20234;-67
2021/12/04 13:25:21;;;;;;;5.90;5.40;;;19.00;27.80;;;;;;6150923;28;20470;-66
2021/12/04 13:28:27;;;;;;;6.87;5.63;;;18.00;28.50;;;;;;6151467;28;20474;-66
2021/12/04 13:31:33;;;;;;;6.17;5.57;;;16.90;29.50;;;;;;6151699;28;20485;-67
2021/12/04 13:34:37;;;;;;;7.03;6.33;;;15.80;30.80;;;;;;6152315;28;20479;-67
2021/12/04 13:37:41;;;;;;;7.13;6.43;;;14.60;32.70;;;;;;6151757;28;20478;-66
2021/12/04 13:40:48;;;;;;;8.10;6.70;;;14.00;34.00;;;;;;6151049;28;20494;-66
2021/12/04 13:43:53;;;;;;;7.10;6.40;;;13.30;35.30;;;;;;6151109;28;20459;-67
2021/12/04 13:47:01;;;;;;;8.70;7.33;;;12.40;37.00;;;;;;6150982;28;20480;-66
2021/12/04 13:53:30;;;;;;;8.00;7.20;;;11.00;40.10;;;;;;6131173;28;20522;-66
2021/12/04 13:56:35;;;;;;;9.43;6.70;;;10.30;42.00;;;;;;6120366;28;20475;-66
2021/12/04 13:59:39;;;;;;;8.13;7.30;;;9.70;44.30;;;;;;6132892;28;20969;-67
2021/12/04 14:02:44;;;;;;;9.60;6.50;;;9.20;46.50;;;;;;6150980;28;20481;-67
2021/12/04 14:05:47;;;;;;;8.20;7.37;;;8.40;49.00;;;;;;6150980;28;21037;-66
2021/12/04 14:08:58;;;;;;;10.33;7.30;;;8.10;50.60;;;;;;6150789;28;20959;-66
2021/12/04 14:12:03;;;;;;;7.13;6.37;;;7.70;52.80;;;;;;6150352;28;20475;-67
2021/12/04 14:15:08;;;;;;;7.17;6.47;;;7.20;54.90;;;;;;6150362;28;20489;-66
2021/12/04 14:18:14;;;;;;;11.20;8.60;;;6.70;57.20;;;;;;6149755;28;20482;-66
2021/12/04 14:21:17;;;;;;;11.43;7.13;;;6.30;59.60;;;;;;6150627;28;20482;-66
2021/12/04 14:24:26;;;;;;;8.80;7.47;;;5.90;62.80;;;;;;6150322;28;20475;-66
2021/12/04 14:27:32;;;;;;;14.57;8.40;;;5.80;65.30;;;;;;6149748;28;20471;-66
2021/12/04 14:30:36;;;;;;;8.47;7.70;;;5.50;67.90;;;;;;6150319;28;20469;-66
2021/12/04 14:33:41;;;;;;;8.47;7.67;;;5.20;70.90;;;;;;6150298;28;20467;-66
2021/12/04 14:36:44;;;;;;;10.50;9.47;;;5.00;73.80;;;;;;6150217;28;20489;-66
2021/12/04 14:39:49;;;;;;;10.53;8.30;;;5.00;75.30;;;;;;6150023;28;20474;-66
2021/12/04 14:42:55;;;;;;;10.80;9.70;;;4.90;77.10;;;;;;6150194;28;20490;-66
2021/12/04 14:45:59;;;;;;;13.00;9.33;;;4.90;78.20;;;;;;6149854;28;20798;-65
2021/12/04 14:49:07;;;;;;;11.53;9.20;;;4.80;79.10;;;;;;6150198;28;20967;-66
2021/12/04 14:52:17;;;;;;;9.30;8.23;;;4.80;79.90;;;;;;6141278;28;20471;-66
2021/12/04 14:55:22;;;;;;;10.63;9.47;;;4.70;80.70;;;;;;6126530;28;20807;-66
2021/12/04 14:58:29;;;;;;;11.23;8.73;;;4.70;80.80;;;;;;6233003;28;20796;-66
2021/12/04 15:01:34;;;;;;;13.37;9.33;;;4.60;81.20;;;;;;6249829;28;20558;-67
2021/12/04 15:04:40;;;;;;;13.70;9.13;;;4.60;81.90;;;;;;6249906;28;20471;-66
2021/12/04 15:07:43;;;;;;;11.03;7.80;;;4.50;83.40;;;;;;6250197;28;20478;-66
2021/12/04 15:10:49;;;;;;;13.43;8.67;;;4.50;83.20;;;;;;6250349;28;20485;-66
2021/12/04 15:13:58;;;;;;;9.60;7.80;;;4.40;83.50;;;;;;6250992;28;20443;-66
2021/12/04 15:17:07;;;;;;;9.70;8.80;;;4.30;84.50;;;;;;6250374;28;20468;-66
2021/12/04 15:20:19;;;;;;;10.03;8.30;;;4.10;85.00;;;;;;6250164;28;20463;-66
2021/12/04 15:23:25;;;;;;;10.20;7.27;;;4.00;85.10;;;;;;6250321;28;20490;-66
2021/12/04 15:26:29;;;;;;;8.00;7.17;;;3.90;85.80;;;;;;6250293;28;20927;-66
2021/12/04 15:29:35;;;;;;;7.93;7.13;;;3.80;86.10;;;;;;6251607;28;20478;-67
2021/12/04 15:32:40;;;;;;;9.80;7.10;;;3.90;85.80;;;;;;6254949;28;20985;-67
2021/12/04 15:35:45;;;;;;;7.87;7.20;;;3.90;86.00;;;;;;6254910;28;20481;-67
2021/12/04 15:38:51;;;;;;;8.93;7.33;;;4.00;86.30;;;;;;6254108;28;20796;-67
2021/12/04 15:42:11;;;;;;;9.07;7.60;;;4.00;86.10;;;;;;6254037;28;20809;-67
2021/12/04 15:45:28;;;;;;;12.23;8.10;;;4.00;86.10;;;;;;6254358;28;20488;-67
2021/12/04 15:49:08;;;;;;;12.60;6.97;;;4.00;85.80;;;;;;6254025;28;20486;-67
2021/12/04 15:52:56;;;;;;;8.73;7.93;;;4.00;85.90;;;;;;6265903;28;20512;-67
2021/12/04 15:56:00;;;;;;;11.03;8.77;;;4.10;85.80;;;;;;6278677;28;20473;-67
2021/12/04 15:59:05;;;;;;;10.70;7.80;;;4.10;85.90;;;;;;6279017;28;20459;-67
2021/12/04 16:02:13;;;;;;;10.13;9.10;;;4.20;85.90;;;;;;6269087;28;20482;-67
2021/12/04 16:05:20;;;;;;;12.23;10.93;;;4.20;85.80;;;;;;6278444;28;20493;-67
2021/12/04 16:08:26;;;;;;;13.83;12.47;;;4.20;85.90;;;;;;6278819;28;20474;-67
2021/12/04 16:11:46;;;;;;;11.77;10.67;;;4.30;86.40;;;;;;6278109;28;20536;-67
2021/12/04 16:14:55;;;;;;;19.23;10.97;;;4.30;87.30;;;;;;6278852;28;20465;-67
2021/12/04 16:18:00;;;;;;;14.90;11.27;;;4.30;87.70;;;;;;6278441;28;20485;-67
2021/12/04 16:21:03;;;;;;;10.93;9.70;;;4.20;88.20;;;;;;6278939;28;20470;-67
2021/12/04 16:24:07;;;;;;;11.90;9.73;;;4.20;88.60;;;;;;6278145;28;20792;-67
2021/12/04 16:27:16;;;;;;;11.37;9.37;;;4.20;88.90;;;;;;6253847;28;20828;-68
2021/12/04 16:30:38;;;;;;;12.60;11.30;;;4.20;89.20;;;;;;6251634;28;20463;-67
2021/12/04 16:33:50;;;;;;;14.20;10.73;;;4.20;89.40;;;;;;6252076;28;20545;-67
2021/12/04 16:37:06;;;;;;;13.57;12.00;;;4.20;89.80;;;;;;6252019;28;20491;-67
2021/12/04 16:40:13;;;;;;;11.90;9.80;;;4.20;90.10;;;;;;6251999;28;20471;-68
2021/12/04 16:43:22;;;;;;;12.97;10.77;;;4.20;90.10;;;;;;6250940;28;20483;-67
2021/12/04 16:46:27;;;;;;;15.83;10.50;;;4.20;90.10;;;;;;6252671;28;20475;-67
2021/12/04 16:49:31;;;;;;;18.50;13.10;;;4.20;90.30;;;;;;6252686;28;20481;-68
2021/12/04 16:59:18;;;;;;;13.00;11.30;;;4.20;90.70;;;;;;6124296;28;20471;-67
2021/12/04 17:02:23;;;;;;;13.97;12.37;;;4.20;90.90;;;;;;6127699;28;20555;-68
2021/12/04 17:05:32;;;;;;;13.77;12.10;;;4.20;91.00;;;;;;6118234;28;20472;-67
2021/12/04 17:08:36;;;;;;;15.37;13.70;;;4.10;91.20;;;;;;6127720;28;20475;-67
2021/12/04 17:11:40;;;;;;;18.13;13.80;;;4.10;91.20;;;;;;6127041;28;20471;-67
2021/12/04 17:14:44;;;;;;;15.60;13.03;;;4.10;91.50;;;;;;6127084;28;20504;-66
2021/12/04 17:17:47;;;;;;;16.40;13.43;;;4.10;91.50;;;;;;6127096;28;20814;-67
2021/12/04 17:20:54;;;;;;;15.00;13.50;;;4.20;91.60;;;;;;6127712;28;20476;-66
2021/12/04 17:23:57;;;;;;;18.13;13.83;;;4.20;91.70;;;;;;6126739;28;20506;-70
2021/12/04 17:27:03;;;;;;;17.93;13.90;;;4.10;91.70;;;;;;6129529;28;20479;-66
2021/12/04 17:30:10;;;;;;;19.70;14.13;;;4.10;91.80;;;;;;6103643;28;20479;-68
2021/12/04 17:33:14;;;;;;;22.03;15.80;;;4.10;91.90;;;;;;6103607;28;20485;-67
2021/12/04 17:36:19;;;;;;;21.93;16.33;;;4.10;91.90;;;;;;6123131;28;20856;-68
2021/12/04 17:39:22;;;;;;;20.47;15.50;;;4.10;92.10;;;;;;6127736;28;20543;-68
2021/12/04 17:42:28;;;;;;;21.07;15.17;;;4.10;92.20;;;;;;6126842;28;20491;-68
2021/12/04 17:45:33;;;;;;;18.17;13.60;;;4.10;92.30;;;;;;6124745;28;20483;-68
2021/12/04 17:48:36;;;;;;;15.93;13.17;;;4.00;92.40;;;;;;6127584;28;20939;-67
2021/12/04 17:51:41;;;;;;;15.50;13.60;;;4.10;92.50;;;;;;6137201;28;20871;-67
2021/12/04 17:54:44;;;;;;;15.77;14.07;;;4.10;92.40;;;;;;6149854;28;20483;-68
2021/12/04 17:57:47;;;;;;;19.80;14.83;;;4.10;92.40;;;;;;6150867;28;20478;-67
2021/12/04 18:00:56;;;;;;;20.50;15.60;;;4.10;92.50;;;;;;6149748;28;20815;-68
2021/12/04 18:04:01;;;;;;;20.43;15.83;;;4.20;92.50;;;;;;6147665;28;20475;-65
2021/12/04 18:07:09;;;;;;;22.73;14.73;;;4.20;92.40;;;;;;6150660;28;20498;-65
2021/12/04 18:10:16;;;;;;;17.97;14.77;;;4.10;92.40;;;;;;6146170;28;20825;-65
2021/12/04 18:13:22;;;;;;;17.10;14.53;;;4.20;92.60;;;;;;6150214;28;20479;-65
2021/12/04 18:16:29;;;;;;;19.33;15.60;;;4.20;92.60;;;;;;6150228;28;20971;-65
2021/12/04 18:19:33;;;;;;;17.67;14.70;;;4.10;92.50;;;;;;6150549;28;20486;-65
2021/12/04 18:22:38;;;;;;;18.80;15.97;;;4.20;92.50;;;;;;6149870;28;20541;-65
2021/12/04 18:25:41;;;;;;;21.07;16.30;;;4.20;92.60;;;;;;6149920;28;20890;-65
2021/12/04 18:28:45;;;;;;;18.20;16.20;;;4.20;92.60;;;;;;6141090;28;20764;-64
2021/12/04 18:31:48;;;;;;;22.30;16.00;;;4.20;92.60;;;;;;6126279;28;20471;-64
2021/12/04 18:34:52;;;;;;;28.93;19.73;;;4.20;92.80;;;;;;6168817;28;20529;-63
2021/12/04 18:37:57;;;;;;;27.60;19.60;;;4.20;92.80;;;;;;6251956;28;20990;-64
2021/12/04 18:41:00;;;;;;;20.63;16.67;;;4.20;93.00;;;;;;6134821;28;20798;-64
2021/12/04 18:44:06;;;;;;;18.63;16.00;;;4.20;93.10;;;;;;6103757;28;20495;-65